sensor_id;sensor_type;location;lat;lon;timestamp;pressure;altitude;pressure_sealevel;temperature;humidity
27232;BME280;61835;50.196;6.454;2022-07-29T00:01:05;96306.56;;;23.01;100.00
27232;BME280;61835;50.196;6.454;2022-07-29T00:03:30;96292.19;;;23.01;100.00
27232;BME280;61835;50.196;6.454;2022-07-29T00:05:56;96289.69;;;22.99;100.00
27232;BME280;61835;50.196;6.454;2022-07-29T00:08:21;96287.00;;;23.12;100.00
27232;BME280;61835;50.196;6.454;2022-07-29T00:10:47;96279.31;;;23.16;100.00
27232;BME280;61835;50.196;6.454;2022-07-29T00:13:12;96289.69;;;23.06;100.00
27232;BME280;61835;50.196;6.454;2022-07-29T00:15:38;96282.84;;;23.16;100.00
27232;BME280;61835;50.196;6.454;2022-07-29T00:18:03;96290.13;;;23.16;100.00
27232;BME280;61835;50.196;6.454;2022-07-29T00:20:29;96287.81;;;23.06;100.00
27232;BME280;61835;50.196;6.454;2022-07-29T00:22:54;96280.16;;;23.16;100.00
27232;BME280;61835;50.196;6.454;2022-07-29T00:25:19;96279.53;;;23.14;100.00
27232;BME280;61835;50.196;6.454;2022-07-29T00:27:45;96286.78;;;23.01;100.00
27232;BME280;61835;50.196;6.454;2022-07-29T00:30:13;96282.16;;;22.88;100.00
27232;BME280;61835;50.196;6.454;2022-07-29T00:32:39;96280.31;;;22.95;100.00
27232;BME280;61835;50.196;6.454;2022-07-29T00:35:05;96275.31;;;22.79;100.00
27232;BME280;61835;50.196;6.454;2022-07-29T00:37:49;96274.63;;;22.70;100.00
27232;BME280;61835;50.196;6.454;2022-07-29T00:40:15;96274.78;;;22.62;100.00
27232;BME280;61835;50.196;6.454;2022-07-29T00:42:44;96269.91;;;22.38;100.00
27232;BME280;61835;50.196;6.454;2022-07-29T00:45:11;96261.00;;;22.38;100.00
27232;BME280;61835;50.196;6.454;2022-07-29T00:47:36;96265.31;;;22.32;100.00
27232;BME280;61835;50.196;6.454;2022-07-29T00:50:04;96262.78;;;22.24;100.00
27232;BME280;61835;50.196;6.454;2022-07-29T00:52:30;96264.41;;;22.12;100.00
27232;BME280;61835;50.196;6.454;2022-07-29T00:54:56;96251.22;;;21.96;100.00
27232;BME280;61835;50.196;6.454;2022-07-29T00:57:21;96255.94;;;21.87;100.00
27232;BME280;61835;50.196;6.454;2022-07-29T00:59:47;96248.38;;;21.76;100.00
27232;BME280;61835;50.196;6.454;2022-07-29T01:02:12;96245.66;;;21.69;100.00
27232;BME280;61835;50.196;6.454;2022-07-29T01:04:38;96241.22;;;21.62;100.00
27232;BME280;61835;50.196;6.454;2022-07-29T01:07:04;96243.69;;;21.57;100.00
27232;BME280;61835;50.196;6.454;2022-07-29T01:09:31;96243.69;;;21.57;100.00
27232;BME280;61835;50.196;6.454;2022-07-29T01:11:57;96243.94;;;21.62;100.00
27232;BME280;61835;50.196;6.454;2022-07-29T01:14:24;96227.09;;;21.60;100.00
27232;BME280;61835;50.196;6.454;2022-07-29T01:17:04;96234.97;;;21.55;100.00
27232;BME280;61835;50.196;6.454;2022-07-29T01:28:00;96230.63;;;21.60;100.00
27232;BME280;61835;50.196;6.454;2022-07-29T01:30:30;96228.38;;;21.64;100.00
27232;BME280;61835;50.196;6.454;2022-07-29T01:33:01;96233.97;;;21.62;100.00
27232;BME280;61835;50.196;6.454;2022-07-29T01:35:36;96237.28;;;21.58;100.00
27232;BME280;61835;50.196;6.454;2022-07-29T01:38:13;96235.59;;;21.57;100.00
27232;BME280;61835;50.196;6.454;2022-07-29T01:40:58;96231.47;;;21.61;100.00
27232;BME280;61835;50.196;6.454;2022-07-29T01:43:45;96236.06;;;21.67;100.00
27232;BME280;61835;50.196;6.454;2022-07-29T01:46:21;96232.53;;;21.66;100.00
27232;BME280;61835;50.196;6.454;2022-07-29T01:48:57;96224.00;;;21.63;100.00
27232;BME280;61835;50.196;6.454;2022-07-29T01:51:32;96220.84;;;21.59;100.00
27232;BME280;61835;50.196;6.454;2022-07-29T01:54:08;96226.25;;;21.59;100.00
27232;BME280;61835;50.196;6.454;2022-07-29T01:56:36;96219.16;;;21.52;100.00
27232;BME280;61835;50.196;6.454;2022-07-29T01:59:04;96223.16;;;21.35;100.00
27232;BME280;61835;50.196;6.454;2022-07-29T02:01:33;96220.69;;;21.33;100.00
27232;BME280;61835;50.196;6.454;2022-07-29T02:04:03;96215.69;;;21.30;100.00
27232;BME280;61835;50.196;6.454;2022-07-29T02:06:30;96220.53;;;21.13;100.00
27232;BME280;61835;50.196;6.454;2022-07-29T02:08:58;96225.56;;;21.17;100.00
27232;BME280;61835;50.196;6.454;2022-07-29T02:11:24;96222.91;;;21.02;100.00
27232;BME280;61835;50.196;6.454;2022-07-29T02:13:52;96219.25;;;21.09;100.00
27232;BME280;61835;50.196;6.454;2022-07-29T02:16:21;96211.41;;;21.14;100.00
27232;BME280;61835;50.196;6.454;2022-07-29T02:18:49;96216.28;;;21.26;100.00
27232;BME280;61835;50.196;6.454;2022-07-29T02:21:21;96211.50;;;21.28;100.00
27232;BME280;61835;50.196;6.454;2022-07-29T02:23:48;96216.34;;;21.39;100.00
27232;BME280;61835;50.196;6.454;2022-07-29T02:26:14;96213.94;;;21.50;100.00
27232;BME280;61835;50.196;6.454;2022-07-29T02:28:42;96212.94;;;21.51;100.00
27232;BME280;61835;50.196;6.454;2022-07-29T02:31:08;96216.41;;;21.45;100.00
27232;BME280;61835;50.196;6.454;2022-07-29T02:33:35;96207.13;;;21.54;100.00
27232;BME280;61835;50.196;6.454;2022-07-29T02:36:01;96209.63;;;21.56;100.00
27232;BME280;61835;50.196;6.454;2022-07-29T02:38:28;96216.69;;;21.57;100.00
27232;BME280;61835;50.196;6.454;2022-07-29T02:41:15;96211.53;;;21.62;100.00
27232;BME280;61835;50.196;6.454;2022-07-29T02:43:43;96216.34;;;21.66;100.00
27232;BME280;61835;50.196;6.454;2022-07-29T02:46:14;96211.34;;;21.63;100.00
27232;BME280;61835;50.196;6.454;2022-07-29T02:48:50;96213.66;;;21.66;100.00
27232;BME280;61835;50.196;6.454;2022-07-29T02:51:26;96215.13;;;21.69;100.00
27232;BME280;61835;50.196;6.454;2022-07-29T02:53:54;96210.16;;;21.79;100.00
27232;BME280;61835;50.196;6.454;2022-07-29T02:56:25;96213.06;;;21.78;100.00
27232;BME280;61835;50.196;6.454;2022-07-29T02:58:57;96204.81;;;21.86;100.00
27232;BME280;61835;50.196;6.454;2022-07-29T03:01:25;96211.41;;;21.77;100.00
27232;BME280;61835;50.196;6.454;2022-07-29T03:03:55;96213.88;;;21.72;100.00
27232;BME280;61835;50.196;6.454;2022-07-29T03:06:23;96212.41;;;21.69;100.00
27232;BME280;61835;50.196;6.454;2022-07-29T03:08:51;96209.91;;;21.67;100.00
27232;BME280;61835;50.196;6.454;2022-07-29T03:11:16;96209.22;;;21.59;100.00
27232;BME280;61835;50.196;6.454;2022-07-29T03:13:42;96203.19;;;21.57;100.00
27232;BME280;61835;50.196;6.454;2022-07-29T03:16:09;96206.91;;;21.56;100.00
27232;BME280;61835;50.196;6.454;2022-07-29T03:18:35;96198.81;;;21.56;100.00
27232;BME280;61835;50.196;6.454;2022-07-29T03:21:02;96205.28;;;21.55;100.00
27232;BME280;61835;50.196;6.454;2022-07-29T03:23:28;96201.41;;;21.70;100.00
27232;BME280;61835;50.196;6.454;2022-07-29T03:25:54;96199.38;;;21.79;100.00
27232;BME280;61835;50.196;6.454;2022-07-29T03:28:20;96198.34;;;21.80;100.00
27232;BME280;61835;50.196;6.454;2022-07-29T03:30:46;96205.59;;;21.80;100.00
27232;BME280;61835;50.196;6.454;2022-07-29T03:33:11;96199.75;;;21.76;100.00
27232;BME280;61835;50.196;6.454;2022-07-29T03:35:37;96191.84;;;21.68;100.00
27232;BME280;61835;50.196;6.454;2022-07-29T03:38:03;96194.97;;;21.72;100.00
27232;BME280;61835;50.196;6.454;2022-07-29T03:40:35;96197.63;;;21.65;100.00
27232;BME280;61835;50.196;6.454;2022-07-29T03:43:03;96200.06;;;21.53;100.00
27232;BME280;61835;50.196;6.454;2022-07-29T03:45:30;96198.44;;;21.59;100.00
27232;BME280;61835;50.196;6.454;2022-07-29T03:48:01;96200.72;;;21.62;100.00
27232;BME280;61835;50.196;6.454;2022-07-29T03:50:31;96192.19;;;21.58;100.00
27232;BME280;61835;50.196;6.454;2022-07-29T03:53:00;96197.97;;;21.55;100.00
27232;BME280;61835;50.196;6.454;2022-07-29T03:55:26;96202.97;;;21.52;100.00
27232;BME280;61835;50.196;6.454;2022-07-29T03:57:54;96205.00;;;21.43;100.00
27232;BME280;61835;50.196;6.454;2022-07-29T04:00:23;96207.75;;;21.22;100.00
27232;BME280;61835;50.196;6.454;2022-07-29T04:02:49;96209.75;;;21.13;100.00
27232;BME280;61835;50.196;6.454;2022-07-29T04:05:15;96202.34;;;21.01;100.00
27232;BME280;61835;50.196;6.454;2022-07-29T04:07:44;96206.66;;;20.95;100.00
27232;BME280;61835;50.196;6.454;2022-07-29T04:10:09;96207.88;;;20.93;100.00
27232;BME280;61835;50.196;6.454;2022-07-29T04:12:35;96206.16;;;20.85;100.00
27232;BME280;61835;50.196;6.454;2022-07-29T04:15:02;96204.66;;;20.83;100.00
27232;BME280;61835;50.196;6.454;2022-07-29T04:17:28;96215.16;;;20.71;100.00
27232;BME280;61835;50.196;6.454;2022-07-29T04:19:53;96219.63;;;20.64;100.00
27232;BME280;61835;50.196;6.454;2022-07-29T04:22:18;96218.06;;;20.55;100.00
27232;BME280;61835;50.196;6.454;2022-07-29T04:24:44;96223.97;;;20.44;100.00
27232;BME280;61835;50.196;6.454;2022-07-29T04:27:09;96235.13;;;20.41;100.00
27232;BME280;61835;50.196;6.454;2022-07-29T04:29:34;96232.31;;;20.49;100.00
27232;BME280;61835;50.196;6.454;2022-07-29T04:32:00;96236.06;;;20.48;100.00
27232;BME280;61835;50.196;6.454;2022-07-29T04:34:26;96240.16;;;20.44;100.00
27232;BME280;61835;50.196;6.454;2022-07-29T04:36:52;96236.06;;;20.48;100.00
27232;BME280;61835;50.196;6.454;2022-07-29T04:39:17;96243.72;;;20.66;100.00
27232;BME280;61835;50.196;6.454;2022-07-29T04:41:43;96242.25;;;20.84;100.00
27232;BME280;61835;50.196;6.454;2022-07-29T04:44:09;96237.13;;;21.10;100.00
27232;BME280;61835;50.196;6.454;2022-07-29T04:46:35;96241.28;;;21.41;100.00
27232;BME280;61835;50.196;6.454;2022-07-29T04:49:01;96240.81;;;21.65;100.00
27232;BME280;61835;50.196;6.454;2022-07-29T04:51:27;96242.63;;;21.86;100.00
27232;BME280;61835;50.196;6.454;2022-07-29T04:53:52;96247.66;;;21.89;100.00
27232;BME280;61835;50.196;6.454;2022-07-29T04:56:18;96251.28;;;22.02;100.00
27232;BME280;61835;50.196;6.454;2022-07-29T04:58:43;96250.47;;;22.15;100.00
27232;BME280;61835;50.196;6.454;2022-07-29T05:01:09;96249.69;;;22.21;100.00
27232;BME280;61835;50.196;6.454;2022-07-29T05:03:34;96259.03;;;22.18;100.00
27232;BME280;61835;50.196;6.454;2022-07-29T05:06:00;96256.72;;;22.15;100.00
27232;BME280;61835;50.196;6.454;2022-07-29T05:08:25;96251.53;;;22.14;100.00
27232;BME280;61835;50.196;6.454;2022-07-29T05:10:50;96260.22;;;22.09;100.00
27232;BME280;61835;50.196;6.454;2022-07-29T05:13:17;96262.72;;;22.04;100.00
27232;BME280;61835;50.196;6.454;2022-07-29T05:15:42;96276.03;;;22.12;100.00
27232;BME280;61835;50.196;6.454;2022-07-29T05:18:08;96274.34;;;22.05;100.00
27232;BME280;61835;50.196;6.454;2022-07-29T05:20:33;96265.22;;;22.12;100.00
27232;BME280;61835;50.196;6.454;2022-07-29T05:23:00;96272.34;;;22.27;100.00
27232;BME280;61835;50.196;6.454;2022-07-29T05:25:27;96270.31;;;22.29;100.00
27232;BME280;61835;50.196;6.454;2022-07-29T05:27:54;96266.16;;;22.33;100.00
27232;BME280;61835;50.196;6.454;2022-07-29T05:30:20;96257.25;;;22.39;100.00
27232;BME280;61835;50.196;6.454;2022-07-29T05:32:45;96259.75;;;22.40;100.00
27232;BME280;61835;50.196;6.454;2022-07-29T05:35:12;96260.41;;;22.49;100.00
27232;BME280;61835;50.196;6.454;2022-07-29T05:37:38;96264.13;;;22.48;100.00
27232;BME280;61835;50.196;6.454;2022-07-29T05:40:04;96267.41;;;22.30;100.00
27232;BME280;61835;50.196;6.454;2022-07-29T05:42:30;96277.53;;;22.21;100.00
27232;BME280;61835;50.196;6.454;2022-07-29T05:44:55;96281.78;;;22.37;100.00
27232;BME280;61835;50.196;6.454;2022-07-29T05:47:22;96276.63;;;22.49;100.00
27232;BME280;61835;50.196;6.454;2022-07-29T05:49:47;96270.59;;;22.53;100.00
27232;BME280;61835;50.196;6.454;2022-07-29T05:52:14;96270.81;;;22.52;100.00
27232;BME280;61835;50.196;6.454;2022-07-29T05:54:40;96268.31;;;22.57;100.00
27232;BME280;61835;50.196;6.454;2022-07-29T05:57:05;96273.53;;;22.52;100.00
27232;BME280;61835;50.196;6.454;2022-07-29T05:59:35;96277.13;;;22.65;100.00
27232;BME280;61835;50.196;6.454;2022-07-29T06:02:00;96272.56;;;22.72;100.00
27232;BME280;61835;50.196;6.454;2022-07-29T06:04:25;96274.06;;;22.82;100.00
27232;BME280;61835;50.196;6.454;2022-07-29T06:06:51;96274.91;;;22.82;100.00
27232;BME280;61835;50.196;6.454;2022-07-29T06:09:16;96278.22;;;22.97;100.00
27232;BME280;61835;50.196;6.454;2022-07-29T06:11:42;96276.00;;;23.20;100.00
27232;BME280;61835;50.196;6.454;2022-07-29T06:14:07;96282.22;;;23.21;100.00
27232;BME280;61835;50.196;6.454;2022-07-29T06:16:33;96282.69;;;23.57;100.00
27232;BME280;61835;50.196;6.454;2022-07-29T06:18:58;96270.34;;;23.87;100.00
27232;BME280;61835;50.196;6.454;2022-07-29T06:21:23;96275.50;;;24.15;100.00
27232;BME280;61835;50.196;6.454;2022-07-29T06:23:49;96277.53;;;24.39;98.26
27232;BME280;61835;50.196;6.454;2022-07-29T06:26:14;96270.63;;;24.50;95.06
27232;BME280;61835;50.196;6.454;2022-07-29T06:28:40;96277.81;;;24.69;88.40
27232;BME280;61835;50.196;6.454;2022-07-29T06:31:05;96277.38;;;24.72;86.91
27232;BME280;61835;50.196;6.454;2022-07-29T06:33:31;96273.91;;;25.03;87.30
27232;BME280;61835;50.196;6.454;2022-07-29T06:35:56;96276.19;;;25.06;89.42
27232;BME280;61835;50.196;6.454;2022-07-29T06:38:22;96273.72;;;24.98;91.00
27232;BME280;61835;50.196;6.454;2022-07-29T06:40:47;96267.25;;;24.99;85.81
27232;BME280;61835;50.196;6.454;2022-07-29T06:43:35;96275.56;;;25.35;80.94
27232;BME280;61835;50.196;6.454;2022-07-29T06:46:04;96273.72;;;24.98;79.21
27232;BME280;61835;50.196;6.454;2022-07-29T06:48:31;96282.06;;;25.28;78.92
27232;BME280;61835;50.196;6.454;2022-07-29T06:50:56;96280.69;;;25.50;81.65
27232;BME280;61835;50.196;6.454;2022-07-29T06:53:22;96279.47;;;25.39;77.39
27232;BME280;61835;50.196;6.454;2022-07-29T06:55:48;96283.00;;;25.46;80.32
27232;BME280;61835;50.196;6.454;2022-07-29T06:58:13;96285.00;;;25.58;78.64
27232;BME280;61835;50.196;6.454;2022-07-29T07:00:41;96284.88;;;25.46;73.21
27232;BME280;61835;50.196;6.454;2022-07-29T07:03:07;96281.16;;;25.90;75.45
27232;BME280;61835;50.196;6.454;2022-07-29T07:05:32;96286.97;;;26.18;68.89
27232;BME280;61835;50.196;6.454;2022-07-29T07:07:58;96288.41;;;26.21;67.48
27232;BME280;61835;50.196;6.454;2022-07-29T07:10:23;96288.75;;;26.06;66.41
27232;BME280;61835;50.196;6.454;2022-07-29T07:12:49;96293.63;;;26.40;72.39
27232;BME280;61835;50.196;6.454;2022-07-29T07:15:14;96290.91;;;26.58;70.25
27232;BME280;61835;50.196;6.454;2022-07-29T07:17:39;96293.34;;;26.30;65.54
27232;BME280;61835;50.196;6.454;2022-07-29T07:20:05;96292.56;;;26.23;66.16
27232;BME280;61835;50.196;6.454;2022-07-29T07:22:31;96300.56;;;26.54;67.29
27232;BME280;61835;50.196;6.454;2022-07-29T07:24:57;96300.09;;;26.57;65.38
27232;BME280;61835;50.196;6.454;2022-07-29T07:27:22;96304.06;;;26.80;63.68
27232;BME280;61835;50.196;6.454;2022-07-29T07:29:47;96304.13;;;26.91;65.37
27232;BME280;61835;50.196;6.454;2022-07-29T07:32:13;96296.97;;;27.08;59.90
27232;BME280;61835;50.196;6.454;2022-07-29T07:34:41;96299.31;;;27.05;63.05
27232;BME280;61835;50.196;6.454;2022-07-29T07:37:07;96299.34;;;26.87;63.61
27232;BME280;61835;50.196;6.454;2022-07-29T07:39:33;96288.78;;;26.60;62.06
27232;BME280;61835;50.196;6.454;2022-07-29T07:41:59;96285.75;;;26.87;60.30
27232;BME280;61835;50.196;6.454;2022-07-29T07:44:24;96292.63;;;27.19;62.11
27232;BME280;61835;50.196;6.454;2022-07-29T07:46:49;96280.94;;;27.30;61.70
27232;BME280;61835;50.196;6.454;2022-07-29T07:49:15;96280.53;;;27.56;60.48
27232;BME280;61835;50.196;6.454;2022-07-29T07:51:40;96286.59;;;27.58;58.86
27232;BME280;61835;50.196;6.454;2022-07-29T07:54:06;96286.97;;;27.74;59.57
27232;BME280;61835;50.196;6.454;2022-07-29T07:56:31;96281.41;;;27.92;58.37
27232;BME280;61835;50.196;6.454;2022-07-29T07:58:56;96289.94;;;27.84;54.18
27232;BME280;61835;50.196;6.454;2022-07-29T08:01:22;96284.03;;;27.87;56.11
27232;BME280;61835;50.196;6.454;2022-07-29T08:03:49;96284.03;;;27.98;55.92
27232;BME280;61835;50.196;6.454;2022-07-29T08:06:15;96285.22;;;28.14;54.83
27232;BME280;61835;50.196;6.454;2022-07-29T08:08:40;96285.31;;;28.42;52.77
27232;BME280;61835;50.196;6.454;2022-07-29T08:11:06;96281.72;;;28.65;53.06
27232;BME280;61835;50.196;6.454;2022-07-29T08:13:32;96277.56;;;28.74;49.76
27232;BME280;61835;50.196;6.454;2022-07-29T08:15:58;96277.13;;;28.94;49.05
27232;BME280;61835;50.196;6.454;2022-07-29T08:18:35;96283.06;;;28.91;48.77
27232;BME280;61835;50.196;6.454;2022-07-29T08:21:01;96279.56;;;29.07;50.01
27232;BME280;61835;50.196;6.454;2022-07-29T08:23:26;96277.06;;;29.05;47.92
27232;BME280;61835;50.196;6.454;2022-07-29T08:26:00;96280.97;;;29.09;50.37
27232;BME280;61835;50.196;6.454;2022-07-29T08:28:26;96283.72;;;29.09;50.35
27232;BME280;61835;50.196;6.454;2022-07-29T08:30:51;96288.00;;;29.05;52.44
27232;BME280;61835;50.196;6.454;2022-07-29T08:33:16;96283.53;;;28.88;52.43
27232;BME280;61835;50.196;6.454;2022-07-29T08:35:43;96285.88;;;29.07;52.64
27232;BME280;61835;50.196;6.454;2022-07-29T08:38:09;96292.66;;;29.05;48.33
27232;BME280;61835;50.196;6.454;2022-07-29T08:40:35;96290.13;;;29.60;47.38
27232;BME280;61835;50.196;6.454;2022-07-29T08:43:05;96288.47;;;29.59;47.01
27232;BME280;61835;50.196;6.454;2022-07-29T08:45:42;96285.50;;;29.77;46.63
27232;BME280;61835;50.196;6.454;2022-07-29T08:48:08;96284.88;;;29.86;47.73
27232;BME280;61835;50.196;6.454;2022-07-29T08:50:35;96296.16;;;29.62;47.96
27232;BME280;61835;50.196;6.454;2022-07-29T08:53:02;96288.31;;;29.65;47.05
27232;BME280;61835;50.196;6.454;2022-07-29T08:55:28;96287.16;;;29.78;46.05
27232;BME280;61835;50.196;6.454;2022-07-29T08:57:55;96286.94;;;29.96;48.03
27232;BME280;61835;50.196;6.454;2022-07-29T09:00:21;96286.84;;;30.08;45.64
27232;BME280;61835;50.196;6.454;2022-07-29T09:02:51;96285.03;;;29.97;45.26
27232;BME280;61835;50.196;6.454;2022-07-29T09:05:21;96289.66;;;30.13;45.39
27232;BME280;61835;50.196;6.454;2022-07-29T09:07:47;96288.19;;;30.27;45.52
27232;BME280;61835;50.196;6.454;2022-07-29T09:10:13;96289.44;;;29.36;45.78
27232;BME280;61835;50.196;6.454;2022-07-29T09:12:38;96288.16;;;29.88;47.66
27232;BME280;61835;50.196;6.454;2022-07-29T09:15:05;96285.44;;;30.05;47.00
27232;BME280;61835;50.196;6.454;2022-07-29T09:17:47;96283.72;;;30.37;44.74
27232;BME280;61835;50.196;6.454;2022-07-29T09:20:19;96282.34;;;30.57;43.66
27232;BME280;61835;50.196;6.454;2022-07-29T09:22:45;96285.28;;;30.72;44.54
27232;BME280;61835;50.196;6.454;2022-07-29T09:25:31;96284.22;;;30.94;44.09
27232;BME280;61835;50.196;6.454;2022-07-29T09:28:08;96279.78;;;31.15;44.92
27232;BME280;61835;50.196;6.454;2022-07-29T09:30:35;96290.09;;;31.30;45.07
27232;BME280;61835;50.196;6.454;2022-07-29T09:33:02;96284.09;;;31.33;41.53
27232;BME280;61835;50.196;6.454;2022-07-29T09:35:29;96287.31;;;31.25;44.19
27232;BME280;61835;50.196;6.454;2022-07-29T09:37:54;96286.13;;;31.42;43.81
27232;BME280;61835;50.196;6.454;2022-07-29T09:40:22;96297.22;;;31.53;42.15
27232;BME280;61835;50.196;6.454;2022-07-29T09:42:49;96291.72;;;31.79;41.95
27232;BME280;61835;50.196;6.454;2022-07-29T09:45:30;96291.28;;;31.66;43.19
27232;BME280;61835;50.196;6.454;2022-07-29T09:47:56;96294.00;;;31.12;43.52
27232;BME280;61835;50.196;6.454;2022-07-29T09:50:39;96293.09;;;31.02;43.71
27232;BME280;61835;50.196;6.454;2022-07-29T09:53:05;96287.59;;;31.50;41.87
27232;BME280;61835;50.196;6.454;2022-07-29T09:55:31;96287.28;;;32.05;42.48
27232;BME280;61835;50.196;6.454;2022-07-29T09:58:20;96277.38;;;32.51;41.08
27232;BME280;61835;50.196;6.454;2022-07-29T10:00:47;96276.78;;;32.86;39.05
27232;BME280;61835;50.196;6.454;2022-07-29T10:03:16;96273.06;;;33.17;38.81
27232;BME280;61835;50.196;6.454;2022-07-29T10:05:43;96272.47;;;32.53;40.56
27232;BME280;61835;50.196;6.454;2022-07-29T10:08:09;96274.91;;;32.44;39.66
27232;BME280;61835;50.196;6.454;2022-07-29T10:10:37;96275.56;;;32.62;38.82
27232;BME280;61835;50.196;6.454;2022-07-29T10:13:08;96279.22;;;32.77;41.08
27232;BME280;61835;50.196;6.454;2022-07-29T10:15:36;96273.47;;;32.84;40.25
27232;BME280;61835;50.196;6.454;2022-07-29T10:18:03;96278.69;;;32.85;39.85
27232;BME280;61835;50.196;6.454;2022-07-29T10:20:29;96273.06;;;32.60;40.98
27232;BME280;61835;50.196;6.454;2022-07-29T10:22:55;96273.16;;;32.80;39.80
27232;BME280;61835;50.196;6.454;2022-07-29T10:25:21;96266.97;;;32.53;40.26
27232;BME280;61835;50.196;6.454;2022-07-29T10:27:48;96271.03;;;32.45;39.69
27232;BME280;61835;50.196;6.454;2022-07-29T10:30:15;96274.03;;;32.86;40.44
27232;BME280;61835;50.196;6.454;2022-07-29T10:33:09;96270.38;;;32.65;38.21
27232;BME280;61835;50.196;6.454;2022-07-29T10:43:54;96278.38;;;33.54;38.33
27232;BME280;61835;50.196;6.454;2022-07-29T10:46:21;96277.03;;;34.07;35.18
27232;BME280;61835;50.196;6.454;2022-07-29T10:54:15;96260.63;;;36.70;32.18
27232;BME280;61835;50.196;6.454;2022-07-29T10:56:41;96267.81;;;36.43;31.98
27232;BME280;61835;50.196;6.454;2022-07-29T11:01:48;96261.81;;;37.68;30.64
27232;BME280;61835;50.196;6.454;2022-07-29T11:04:15;96273.31;;;37.61;30.78
27232;BME280;61835;50.196;6.454;2022-07-29T11:07:06;96271.50;;;37.89;30.01
27232;BME280;61835;50.196;6.454;2022-07-29T11:09:33;96272.00;;;37.35;30.41
27232;BME280;61835;50.196;6.454;2022-07-29T11:11:58;96269.56;;;36.62;31.73
27232;BME280;61835;50.196;6.454;2022-07-29T11:17:17;96271.06;;;36.97;30.65
27232;BME280;61835;50.196;6.454;2022-07-29T11:19:43;96274.84;;;36.59;30.48
27232;BME280;61835;50.196;6.454;2022-07-29T11:22:10;96273.13;;;35.27;31.74
27232;BME280;61835;50.196;6.454;2022-07-29T11:24:36;96276.53;;;35.58;31.74
27232;BME280;61835;50.196;6.454;2022-07-29T11:29:35;96272.06;;;36.01;31.42
27232;BME280;61835;50.196;6.454;2022-07-29T11:32:13;96267.69;;;35.95;31.93
27232;BME280;61835;50.196;6.454;2022-07-29T11:34:41;96265.22;;;36.56;30.86
27232;BME280;61835;50.196;6.454;2022-07-29T11:45:00;96264.97;;;35.51;34.48
27232;BME280;61835;50.196;6.454;2022-07-29T11:47:28;96267.28;;;34.75;35.05
27232;BME280;61835;50.196;6.454;2022-07-29T11:49:55;96270.03;;;34.80;36.45
27232;BME280;61835;50.196;6.454;2022-07-29T11:52:21;96270.13;;;34.19;36.79
27232;BME280;61835;50.196;6.454;2022-07-29T11:54:47;96275.09;;;33.82;36.69
27232;BME280;61835;50.196;6.454;2022-07-29T11:57:16;96274.53;;;34.05;36.47
27232;BME280;61835;50.196;6.454;2022-07-29T11:59:43;96267.38;;;34.04;37.51
27232;BME280;61835;50.196;6.454;2022-07-29T12:02:09;96264.63;;;34.04;37.58
27232;BME280;61835;50.196;6.454;2022-07-29T12:04:55;96274.56;;;33.80;37.01
27232;BME280;61835;50.196;6.454;2022-07-29T12:07:27;96261.91;;;34.09;35.31
27232;BME280;61835;50.196;6.454;2022-07-29T12:09:53;96261.16;;;34.88;35.21
27232;BME280;61835;50.196;6.454;2022-07-29T12:12:20;96256.03;;;35.25;35.85
27232;BME280;61835;50.196;6.454;2022-07-29T12:14:45;96268.97;;;34.46;35.63
27232;BME280;61835;50.196;6.454;2022-07-29T12:17:27;96272.34;;;34.22;35.36
27232;BME280;61835;50.196;6.454;2022-07-29T12:19:53;96264.63;;;33.99;35.58
27232;BME280;61835;50.196;6.454;2022-07-29T12:22:30;96259.66;;;34.37;35.54
27232;BME280;61835;50.196;6.454;2022-07-29T12:25:01;96259.06;;;34.40;36.45
27232;BME280;61835;50.196;6.454;2022-07-29T12:27:27;96257.16;;;35.19;34.97
27232;BME280;61835;50.196;6.454;2022-07-29T12:30:05;96252.81;;;35.57;33.15
27232;BME280;61835;50.196;6.454;2022-07-29T12:32:36;96251.84;;;35.77;34.12
27232;BME280;61835;50.196;6.454;2022-07-29T12:35:15;96264.59;;;35.68;33.98
27232;BME280;61835;50.196;6.454;2022-07-29T12:37:43;96257.75;;;35.16;35.44
27232;BME280;61835;50.196;6.454;2022-07-29T12:40:11;96268.97;;;34.46;34.80
27232;BME280;61835;50.196;6.454;2022-07-29T12:42:38;96264.09;;;33.92;35.87
27232;BME280;61835;50.196;6.454;2022-07-29T12:45:05;96263.53;;;33.65;37.20
27232;BME280;61835;50.196;6.454;2022-07-29T12:47:31;96269.22;;;33.28;37.93
27232;BME280;61835;50.196;6.454;2022-07-29T12:50:11;96262.88;;;33.18;39.04
27232;BME280;61835;50.196;6.454;2022-07-29T12:52:37;96269.78;;;33.20;39.43
27232;BME280;61835;50.196;6.454;2022-07-29T12:55:03;96270.41;;;32.80;40.95
27232;BME280;61835;50.196;6.454;2022-07-29T12:57:28;96274.50;;;32.21;42.91
27232;BME280;61835;50.196;6.454;2022-07-29T13:00:06;96270.25;;;32.03;42.58
27232;BME280;61835;50.196;6.454;2022-07-29T13:02:36;96278.06;;;31.89;42.82
27232;BME280;61835;50.196;6.454;2022-07-29T13:05:03;96275.75;;;32.08;42.14
27232;BME280;61835;50.196;6.454;2022-07-29T13:07:30;96283.13;;;32.02;43.44
27232;BME280;61835;50.196;6.454;2022-07-29T13:10:15;96274.81;;;31.61;44.22
27232;BME280;61835;50.196;6.454;2022-07-29T13:15:24;96286.13;;;31.42;46.26
27232;BME280;61835;50.196;6.454;2022-07-29T13:17:50;96285.25;;;31.64;44.51
27232;BME280;61835;50.196;6.454;2022-07-29T13:20:15;96270.78;;;32.47;43.30
27232;BME280;61835;50.196;6.454;2022-07-29T13:22:41;96281.88;;;33.34;41.11
27232;BME280;61835;50.196;6.454;2022-07-29T13:25:09;96275.38;;;34.11;40.70
27232;BME280;61835;50.196;6.454;2022-07-29T13:27:36;96276.75;;;35.18;39.62
27232;BME280;61835;50.196;6.454;2022-07-29T13:30:04;96270.22;;;36.25;37.83
27232;BME280;61835;50.196;6.454;2022-07-29T13:32:31;96268.66;;;36.14;35.13
27232;BME280;61835;50.196;6.454;2022-07-29T13:34:58;96281.41;;;35.27;35.94
27232;BME280;61835;50.196;6.454;2022-07-29T13:37:24;96287.72;;;34.69;38.68
27232;BME280;61835;50.196;6.454;2022-07-29T13:39:49;96282.25;;;34.29;37.85